createdAt,value
2023-03-26T00:00:19.294Z,78.24
2023-03-26T00:05:23.473Z,78.66
2023-03-26T00:10:32.448Z,79.85
2023-03-26T00:15:38.346Z,78.64
2023-03-26T00:20:42.145Z,78.40
2023-03-26T00:25:54.868Z,77.95
2023-03-26T00:31:02.445Z,77.31
2023-03-26T00:36:07.219Z,77.62
2023-03-26T00:41:38.135Z,78.48
2023-03-26T00:46:45.996Z,77.36
2023-03-26T00:51:48.860Z,78.23
2023-03-26T00:56:55.894Z,78.50
2023-03-26T01:02:00.366Z,80.25
2023-03-26T01:07:05.741Z,80.99
2023-03-26T01:12:15.914Z,82.34
2023-03-26T01:17:19.686Z,80.09
2023-03-26T01:22:25.536Z,78.68
2023-03-26T01:27:35.999Z,78.14
2023-03-26T01:32:49.543Z,75.19
2023-03-26T01:38:01.207Z,76.59
2023-03-26T01:43:11.332Z,77.11
2023-03-26T01:48:15.059Z,78.50
2023-03-26T01:53:18.054Z,78.41
2023-03-26T01:58:30.070Z,77.02
2023-03-26T02:03:38.310Z,74.99
2023-03-26T02:08:46.728Z,76.95
2023-03-26T02:13:51.882Z,77.19
2023-03-26T02:18:55.737Z,75.15
2023-03-26T02:24:02.783Z,75.16
2023-03-26T02:29:09.833Z,75.87
2023-03-26T02:34:13.946Z,74.99
2023-03-26T02:39:23.267Z,71.83
2023-03-26T02:44:33.856Z,73.77
2023-03-26T02:49:36.607Z,74.24
2023-03-26T02:54:39.594Z,73.59
2023-03-26T02:59:46.265Z,70.39
2023-03-26T03:05:08.368Z,71.82
2023-03-26T03:10:13.781Z,71.23
2023-03-26T03:15:36.352Z,73.96
2023-03-26T03:20:39.159Z,70.42
2023-03-26T03:25:42.102Z,70.92
2023-03-26T03:30:47.090Z,69.43
2023-03-26T03:35:59.390Z,71.19
2023-03-26T03:41:03.550Z,72.80
2023-03-26T03:46:09.613Z,73.53
2023-03-26T03:51:20.994Z,70.76
2023-03-26T03:56:36.082Z,69.84
2023-03-26T04:02:05.841Z,70.66
2023-03-26T04:07:21.432Z,68.76
2023-03-26T04:13:02.812Z,70.60
2023-03-26T04:18:29.525Z,69.42
2023-03-26T04:23:36.761Z,68.69
2023-03-26T04:28:53.272Z,69.31
2023-03-26T04:34:07.026Z,68.20
2023-03-26T04:39:17.886Z,66.89
2023-03-26T04:44:50.731Z,67.81
2023-03-26T04:49:55.914Z,66.58
2023-03-26T04:54:59.115Z,65.34
2023-03-26T05:00:08.924Z,65.50
2023-03-26T05:05:13.707Z,67.90
2023-03-26T05:10:20.214Z,66.27
2023-03-26T05:15:34.004Z,67.74
2023-03-26T05:20:47.512Z,68.08
2023-03-26T05:25:50.667Z,67.05
2023-03-26T05:30:56.855Z,65.73
2023-03-26T05:36:06.968Z,67.15
2023-03-26T05:41:11.384Z,64.12
2023-03-26T05:46:18.066Z,65.68
2023-03-26T05:51:23.405Z,66.53
2023-03-26T05:56:46.978Z,66.89
2023-03-26T06:02:08.689Z,66.76
2023-03-26T06:07:41.595Z,62.52
2023-03-26T06:12:51.527Z,64.23
2023-03-26T06:17:55.363Z,63.26
2023-03-26T06:23:24.326Z,60.72
2023-03-26T06:28:39.205Z,61.73
2023-03-26T06:34:20.648Z,61.53
2023-03-26T06:39:24.814Z,59.84
2023-03-26T06:44:44.061Z,57.91
2023-03-26T06:50:06.128Z,57.84
2023-03-26T06:55:10.860Z,57.03
2023-03-26T07:00:32.092Z,55.29
2023-03-26T07:05:53.339Z,54.34
2023-03-26T07:11:35.828Z,52.68
2023-03-26T07:16:58.506Z,49.13
2023-03-26T07:22:16.738Z,47.53
2023-03-26T07:27:53.416Z,46.77
2023-03-26T07:33:11.921Z,45.71
2023-03-26T07:38:49.876Z,46.16
2023-03-26T07:44:42.158Z,42.80
2023-03-26T07:50:18.285Z,43.34
2023-03-26T07:55:48.297Z,44.08
2023-03-26T08:01:46.283Z,43.19
2023-03-26T08:06:59.163Z,44.48
2023-03-26T08:12:40.164Z,44.91
2023-03-26T08:17:52.040Z,43.64
2023-03-26T08:23:02.138Z,43.89
2023-03-26T08:28:17.063Z,43.53
2023-03-26T08:33:22.780Z,44.67
2023-03-26T08:38:25.514Z,44.29
2023-03-26T08:44:05.257Z,43.41
2023-03-26T08:49:30.449Z,43.94
2023-03-26T08:54:57.274Z,43.45
2023-03-26T09:00:26.452Z,41.19
2023-03-26T09:06:02.789Z,40.58
2023-03-26T09:11:46.590Z,38.92
2023-03-26T09:17:15.897Z,40.14
2023-03-26T09:23:02.912Z,41.16
2023-03-26T09:28:36.579Z,39.38
2023-03-26T09:33:57.109Z,40.15
2023-03-26T09:39:09.778Z,40.79
2023-03-26T09:44:40.691Z,38.62
2023-03-26T09:49:51.167Z,38.76
2023-03-26T09:55:36.612Z,38.35
2023-03-26T10:00:49.190Z,38.83
2023-03-26T10:06:00.611Z,39.26
2023-03-26T10:11:11.068Z,39.32
2023-03-26T10:16:24.322Z,39.60
2023-03-26T10:21:37.181Z,40.24
2023-03-26T10:27:08.482Z,38.98
2023-03-26T10:32:30.352Z,38.61
2023-03-26T10:37:51.775Z,37.36
2023-03-26T10:43:17.210Z,37.77
2023-03-26T10:49:01.059Z,36.50
2023-03-26T10:54:12.212Z,37.55
2023-03-26T10:59:17.428Z,39.00
2023-03-26T11:04:36.652Z,38.73
2023-03-26T11:09:50.180Z,39.50
2023-03-26T11:15:04.443Z,38.09
2023-03-26T11:20:15.365Z,39.36
2023-03-26T11:25:47.773Z,40.19
2023-03-26T11:30:59.880Z,38.68
2023-03-26T11:36:06.869Z,37.73
2023-03-26T11:41:16.079Z,38.87
2023-03-26T11:46:48.182Z,38.76
2023-03-26T11:51:51.007Z,38.72
2023-03-26T11:57:06.381Z,40.38
2023-03-26T12:02:25.573Z,39.39
2023-03-26T12:07:32.783Z,38.90
2023-03-26T12:12:40.496Z,38.79
2023-03-26T12:17:43.974Z,39.65
2023-03-26T12:22:49.502Z,38.45
2023-03-26T12:28:02.884Z,38.73
2023-03-26T12:33:08.777Z,40.13
2023-03-26T12:38:22.898Z,38.07
2023-03-26T12:44:53.355Z,39.38
2023-03-26T12:48:55.554Z,38.76
2023-03-26T12:54:34.062Z,40.97
2023-03-26T13:00:08.176Z,40.41
2023-03-26T13:05:23.766Z,37.98
2023-03-26T13:10:54.543Z,37.90
2023-03-26T13:16:01.991Z,39.77
2023-03-26T13:21:11.946Z,39.85
2023-03-26T13:26:31.637Z,38.75
2023-03-26T13:31:43.040Z,37.55
2023-03-26T13:36:57.914Z,38.74
2023-03-26T13:42:24.055Z,38.00
2023-03-26T13:47:31.406Z,38.98
2023-03-26T13:52:38.939Z,39.20
2023-03-26T13:57:47.617Z,38.13
2023-03-26T14:02:58.785Z,38.45
2023-03-26T14:08:05.395Z,38.00
2023-03-26T14:13:14.619Z,38.88
2023-03-26T14:18:31.000Z,40.34
2023-03-26T14:23:53.181Z,38.95
2023-03-26T14:29:29.423Z,40.24
2023-03-26T14:34:46.849Z,40.43
2023-03-26T14:40:05.649Z,40.99
2023-03-26T14:45:22.816Z,40.66
2023-03-26T14:50:47.802Z,37.50
2023-03-26T14:56:25.198Z,37.99
2023-03-26T15:01:29.391Z,38.56
2023-03-26T15:07:10.350Z,40.68
2023-03-26T15:12:27.397Z,40.71
2023-03-26T15:18:13.388Z,41.97
2023-03-26T15:23:46.293Z,41.55
2023-03-26T15:29:27.004Z,41.61
2023-03-26T15:34:59.161Z,39.43
2023-03-26T15:40:40.388Z,38.71
2023-03-26T15:45:46.004Z,39.36
2023-03-26T15:50:55.759Z,39.53
2023-03-26T15:56:12.362Z,39.15
2023-03-26T16:01:26.462Z,39.72
2023-03-26T16:06:34.019Z,40.38
2023-03-26T16:11:54.775Z,38.88
2023-03-26T16:16:59.960Z,40.26
2023-03-26T16:22:05.804Z,40.60
2023-03-26T16:27:30.895Z,39.99
2023-03-26T16:32:35.755Z,39.57
2023-03-26T16:37:50.534Z,40.69
2023-03-26T16:43:03.122Z,40.57
2023-03-26T16:48:16.653Z,40.47
2023-03-26T16:53:29.858Z,41.73
2023-03-26T16:58:44.768Z,41.99
2023-03-26T17:03:55.458Z,41.58
2023-03-26T17:09:10.658Z,43.03
2023-03-26T17:14:29.477Z,44.69
2023-03-26T17:19:40.417Z,44.21
2023-03-26T17:24:50.948Z,44.54
2023-03-26T17:30:46.174Z,45.33
2023-03-26T17:35:50.433Z,44.70
2023-03-26T17:40:56.195Z,45.08
2023-03-26T17:46:03.237Z,45.19
2023-03-26T17:51:30.708Z,44.91
2023-03-26T17:56:37.718Z,45.51
2023-03-26T18:01:45.073Z,46.06
2023-03-26T18:07:18.373Z,46.53
2023-03-26T18:12:50.633Z,49.25
2023-03-26T18:18:03.182Z,49.74
2023-03-26T18:23:11.986Z,52.05
2023-03-26T18:28:15.320Z,52.08
2023-03-26T18:33:20.110Z,51.67
2023-03-26T18:38:35.974Z,51.95
2023-03-26T18:43:44.557Z,51.08
2023-03-26T18:48:48.960Z,50.64
2023-03-26T18:53:55.633Z,50.09
2023-03-26T18:59:00.438Z,49.61
2023-03-26T19:04:07.607Z,48.52
2023-03-26T19:09:24.231Z,47.77
2023-03-26T19:42:25.110Z,41.16
2023-03-26T19:48:00.053Z,40.00
2023-03-26T19:54:11.308Z,39.32
2023-03-26T19:59:15.199Z,38.94
2023-03-26T20:04:18.180Z,39.54
2023-03-26T20:09:22.331Z,40.08
2023-03-26T20:14:26.557Z,40.88
2023-03-26T20:19:29.610Z,40.89
2023-03-26T20:24:34.208Z,41.01
2023-03-26T20:29:39.027Z,42.22
2023-03-26T20:41:54.429Z,42.88
2023-03-26T20:47:00.477Z,43.22
2023-03-26T20:52:03.380Z,43.60
2023-03-26T20:57:07.541Z,43.57
2023-03-26T21:02:12.243Z,44.21
2023-03-26T21:07:18.459Z,45.36
2023-03-26T21:12:30.027Z,45.33
2023-03-26T21:17:33.399Z,45.33
2023-03-26T21:22:43.368Z,45.34
2023-03-26T21:27:57.721Z,44.76
2023-03-26T21:33:00.702Z,45.23
2023-03-26T21:38:05.763Z,46.58
2023-03-26T21:43:13.282Z,46.40
2023-03-26T21:48:16.926Z,46.13
2023-03-26T21:53:21.688Z,46.60
2023-03-26T21:58:42.186Z,46.86
2023-03-26T22:03:56.070Z,46.62
2023-03-26T22:08:59.585Z,46.25
2023-03-26T22:14:03.677Z,46.21
2023-03-26T22:19:07.247Z,46.65
2023-03-26T22:24:10.008Z,47.14
2023-03-26T22:29:14.461Z,46.85
2023-03-26T22:34:17.711Z,48.02
2023-03-26T22:39:20.766Z,47.38
2023-03-26T22:44:25.343Z,47.98
2023-03-26T22:49:30.267Z,47.59
2023-03-26T22:54:33.123Z,48.26
2023-03-26T22:59:37.355Z,48.58
2023-03-26T23:04:42.659Z,48.95
2023-03-26T23:09:45.634Z,49.46
2023-03-26T23:14:52.982Z,48.25
2023-03-26T23:19:55.895Z,48.57
2023-03-26T23:24:58.726Z,49.46
2023-03-26T23:30:04.172Z,48.55
2023-03-26T23:35:07.922Z,48.69
2023-03-26T23:40:12.469Z,50.26
2023-03-26T23:45:16.924Z,50.89
2023-03-26T23:50:20.634Z,50.65
2023-03-26T23:55:23.400Z,50.54
